sensor_id;sensor_type;location;lat;lon;timestamp;temperature;humidity
41953;DHT22;63613;28.200;112.870;2023-04-03T00:01:29;22.20;79.00
41953;DHT22;63613;28.200;112.870;2023-04-03T00:03:56;22.20;79.00
41953;DHT22;63613;28.200;112.870;2023-04-03T00:06:23;22.20;79.00
41953;DHT22;63613;28.200;112.870;2023-04-03T00:08:52;22.20;79.00
41953;DHT22;63613;28.200;112.870;2023-04-03T00:11:19;22.20;78.90
41953;DHT22;63613;28.200;112.870;2023-04-03T00:13:46;22.20;78.90
41953;DHT22;63613;28.200;112.870;2023-04-03T00:16:13;22.20;78.90
41953;DHT22;63613;28.200;112.870;2023-04-03T00:18:40;22.20;78.90
41953;DHT22;63613;28.200;112.870;2023-04-03T00:21:07;22.20;78.90
41953;DHT22;63613;28.200;112.870;2023-04-03T00:23:37;22.30;78.90
41953;DHT22;63613;28.200;112.870;2023-04-03T00:26:24;22.30;78.90
41953;DHT22;63613;28.200;112.870;2023-04-03T00:28:51;22.30;79.00
41953;DHT22;63613;28.200;112.870;2023-04-03T00:31:18;22.30;79.00
41953;DHT22;63613;28.200;112.870;2023-04-03T00:33:48;22.30;79.00
41953;DHT22;63613;28.200;112.870;2023-04-03T00:36:15;22.30;79.10
41953;DHT22;63613;28.200;112.870;2023-04-03T00:38:42;22.30;79.00
41953;DHT22;63613;28.200;112.870;2023-04-03T00:41:09;22.30;79.10
41953;DHT22;63613;28.200;112.870;2023-04-03T00:43:37;22.40;79.10
41953;DHT22;63613;28.200;112.870;2023-04-03T00:46:04;22.40;79.20
41953;DHT22;63613;28.200;112.870;2023-04-03T00:51:11;22.40;79.10
41953;DHT22;63613;28.200;112.870;2023-04-03T00:53:46;22.40;79.10
41953;DHT22;63613;28.200;112.870;2023-04-03T00:56:16;22.40;79.10
41953;DHT22;63613;28.200;112.870;2023-04-03T00:58:51;22.50;79.00
41953;DHT22;63613;28.200;112.870;2023-04-03T01:01:23;22.50;79.00
41953;DHT22;63613;28.200;112.870;2023-04-03T01:03:50;22.50;78.90
41953;DHT22;63613;28.200;112.870;2023-04-03T01:06:20;22.50;78.90
41953;DHT22;63613;28.200;112.870;2023-04-03T01:09:05;22.50;78.90
41953;DHT22;63613;28.200;112.870;2023-04-03T01:11:32;22.60;78.90
41953;DHT22;63613;28.200;112.870;2023-04-03T01:13:59;22.60;78.90
41953;DHT22;63613;28.200;112.870;2023-04-03T01:16:27;22.60;79.00
41953;DHT22;63613;28.200;112.870;2023-04-03T01:19:16;22.60;78.80
41953;DHT22;63613;28.200;112.870;2023-04-03T01:22:11;22.50;77.30
41953;DHT22;63613;28.200;112.870;2023-04-03T01:24:43;22.60;76.70
41953;DHT22;63613;28.200;112.870;2023-04-03T01:27:10;22.50;76.30
41953;DHT22;63613;28.200;112.870;2023-04-03T01:29:38;22.50;76.20
41953;DHT22;63613;28.200;112.870;2023-04-03T01:32:25;22.50;76.20
41953;DHT22;63613;28.200;112.870;2023-04-03T01:34:52;22.60;76.20
41953;DHT22;63613;28.200;112.870;2023-04-03T01:37:18;22.60;76.10
41953;DHT22;63613;28.200;112.870;2023-04-03T01:39:45;22.60;76.10
41953;DHT22;63613;28.200;112.870;2023-04-03T01:42:12;22.60;76.10
41953;DHT22;63613;28.200;112.870;2023-04-03T01:44:39;22.50;76.00
41953;DHT22;63613;28.200;112.870;2023-04-03T01:47:07;22.50;76.00
41953;DHT22;63613;28.200;112.870;2023-04-03T01:49:33;22.50;76.20
41953;DHT22;63613;28.200;112.870;2023-04-03T01:52:00;22.50;76.30
41953;DHT22;63613;28.200;112.870;2023-04-03T01:54:27;22.50;76.30
41953;DHT22;63613;28.200;112.870;2023-04-03T01:56:54;22.50;76.30
41953;DHT22;63613;28.200;112.870;2023-04-03T01:59:21;22.50;76.30
41953;DHT22;63613;28.200;112.870;2023-04-03T02:01:48;22.50;76.30
41953;DHT22;63613;28.200;112.870;2023-04-03T02:04:14;22.50;76.20
41953;DHT22;63613;28.200;112.870;2023-04-03T02:06:41;22.50;76.20
41953;DHT22;63613;28.200;112.870;2023-04-03T02:09:08;22.60;76.20
41953;DHT22;63613;28.200;112.870;2023-04-03T02:11:55;22.60;76.30
41953;DHT22;63613;28.200;112.870;2023-04-03T02:14:22;22.60;76.20
41953;DHT22;63613;28.200;112.870;2023-04-03T02:16:50;22.60;76.10
41953;DHT22;63613;28.200;112.870;2023-04-03T02:19:16;22.60;75.90
41953;DHT22;63613;28.200;112.870;2023-04-03T02:21:46;22.60;76.00
41953;DHT22;63613;28.200;112.870;2023-04-03T02:24:13;22.60;75.90
41953;DHT22;63613;28.200;112.870;2023-04-03T02:26:40;22.70;76.10
41953;DHT22;63613;28.200;112.870;2023-04-03T02:29:09;22.60;76.10
41953;DHT22;63613;28.200;112.870;2023-04-03T02:31:36;22.60;76.20
41953;DHT22;63613;28.200;112.870;2023-04-03T02:34:03;22.70;76.30
41953;DHT22;63613;28.200;112.870;2023-04-03T02:36:29;22.70;76.30
41953;DHT22;63613;28.200;112.870;2023-04-03T02:38:59;22.70;76.30
41953;DHT22;63613;28.200;112.870;2023-04-03T02:41:26;22.70;76.30
41953;DHT22;63613;28.200;112.870;2023-04-03T02:43:59;22.70;76.20
41953;DHT22;63613;28.200;112.870;2023-04-03T02:46:26;22.80;76.50
41953;DHT22;63613;28.200;112.870;2023-04-03T02:48:53;22.80;76.20
41953;DHT22;63613;28.200;112.870;2023-04-03T02:51:20;22.80;76.40
41953;DHT22;63613;28.200;112.870;2023-04-03T02:53:47;22.80;76.30
41953;DHT22;63613;28.200;112.870;2023-04-03T02:56:13;22.80;76.20
41953;DHT22;63613;28.200;112.870;2023-04-03T02:58:40;22.80;76.40
41953;DHT22;63613;28.200;112.870;2023-04-03T03:01:07;22.80;76.60
41953;DHT22;63613;28.200;112.870;2023-04-03T03:03:34;22.90;76.30
41953;DHT22;63613;28.200;112.870;2023-04-03T03:06:06;22.90;76.10
41953;DHT22;63613;28.200;112.870;2023-04-03T03:08:33;22.90;76.10
41953;DHT22;63613;28.200;112.870;2023-04-03T03:11:00;22.90;76.30
41953;DHT22;63613;28.200;112.870;2023-04-03T03:13:28;23.00;76.10
41953;DHT22;63613;28.200;112.870;2023-04-03T03:16:14;23.00;76.10
41953;DHT22;63613;28.200;112.870;2023-04-03T03:18:41;23.00;76.00
41953;DHT22;63613;28.200;112.870;2023-04-03T03:21:09;23.00;75.90
41953;DHT22;63613;28.200;112.870;2023-04-03T03:23:36;23.00;76.00
41953;DHT22;63613;28.200;112.870;2023-04-03T03:26:06;23.00;76.70
41953;DHT22;63613;28.200;112.870;2023-04-03T03:28:34;23.10;76.80
41953;DHT22;63613;28.200;112.870;2023-04-03T03:31:03;23.10;77.10
41953;DHT22;63613;28.200;112.870;2023-04-03T03:33:30;23.10;77.80
41953;DHT22;63613;28.200;112.870;2023-04-03T03:35:57;23.20;77.80
41953;DHT22;63613;28.200;112.870;2023-04-03T03:38:24;23.20;77.80
41953;DHT22;63613;28.200;112.870;2023-04-03T03:40:52;23.20;77.80
41953;DHT22;63613;28.200;112.870;2023-04-03T03:43:18;23.30;77.80
41953;DHT22;63613;28.200;112.870;2023-04-03T03:45:50;23.30;77.80
41953;DHT22;63613;28.200;112.870;2023-04-03T03:48:19;23.30;77.80
41953;DHT22;63613;28.200;112.870;2023-04-03T03:50:46;23.30;77.90
41953;DHT22;63613;28.200;112.870;2023-04-03T03:53:13;23.30;77.70
41953;DHT22;63613;28.200;112.870;2023-04-03T03:55:40;23.30;77.80
41953;DHT22;63613;28.200;112.870;2023-04-03T03:58:06;23.30;77.60
41953;DHT22;63613;28.200;112.870;2023-04-03T04:00:33;23.40;77.50
41953;DHT22;63613;28.200;112.870;2023-04-03T04:03:03;23.40;77.50
41953;DHT22;63613;28.200;112.870;2023-04-03T04:05:29;23.40;77.40
41953;DHT22;63613;28.200;112.870;2023-04-03T04:07:58;23.40;77.50
41953;DHT22;63613;28.200;112.870;2023-04-03T04:10:24;23.40;77.30
41953;DHT22;63613;28.200;112.870;2023-04-03T04:12:51;23.50;77.20
41953;DHT22;63613;28.200;112.870;2023-04-03T04:15:18;23.50;77.30
41953;DHT22;63613;28.200;112.870;2023-04-03T04:17:47;23.50;77.30
41953;DHT22;63613;28.200;112.870;2023-04-03T04:20:14;23.50;77.40
41953;DHT22;63613;28.200;112.870;2023-04-03T04:22:41;23.50;77.20
41953;DHT22;63613;28.200;112.870;2023-04-03T04:25:08;23.50;77.10
41953;DHT22;63613;28.200;112.870;2023-04-03T04:27:35;23.60;77.10
41953;DHT22;63613;28.200;112.870;2023-04-03T04:30:04;23.60;77.10
41953;DHT22;63613;28.200;112.870;2023-04-03T04:32:32;23.60;76.80
41953;DHT22;63613;28.200;112.870;2023-04-03T04:35:00;23.70;76.70
41953;DHT22;63613;28.200;112.870;2023-04-03T04:37:29;23.70;76.60
41953;DHT22;63613;28.200;112.870;2023-04-03T04:39:56;23.70;76.90
41953;DHT22;63613;28.200;112.870;2023-04-03T04:42:23;23.70;77.00
41953;DHT22;63613;28.200;112.870;2023-04-03T04:44:51;23.70;77.20
41953;DHT22;63613;28.200;112.870;2023-04-03T04:47:18;23.70;77.10
41953;DHT22;63613;28.200;112.870;2023-04-03T04:49:47;23.70;77.00
41953;DHT22;63613;28.200;112.870;2023-04-03T04:52:15;23.80;76.90
41953;DHT22;63613;28.200;112.870;2023-04-03T04:54:41;23.70;76.90
41953;DHT22;63613;28.200;112.870;2023-04-03T04:57:11;23.80;76.70
41953;DHT22;63613;28.200;112.870;2023-04-03T04:59:41;23.80;76.60
41953;DHT22;63613;28.200;112.870;2023-04-03T05:02:29;23.80;76.90
41953;DHT22;63613;28.200;112.870;2023-04-03T05:04:56;23.80;76.90
41953;DHT22;63613;28.200;112.870;2023-04-03T05:07:26;23.80;76.80
41953;DHT22;63613;28.200;112.870;2023-04-03T05:09:53;24.00;76.30
41953;DHT22;63613;28.200;112.870;2023-04-03T05:12:21;23.90;76.70
41953;DHT22;63613;28.200;112.870;2023-04-03T05:14:50;23.80;76.90
41953;DHT22;63613;28.200;112.870;2023-04-03T05:17:16;23.80;76.90
41953;DHT22;63613;28.200;112.870;2023-04-03T05:19:43;23.80;76.70
41953;DHT22;63613;28.200;112.870;2023-04-03T05:22:10;23.90;76.40
41953;DHT22;63613;28.200;112.870;2023-04-03T05:24:40;24.00;76.20
41953;DHT22;63613;28.200;112.870;2023-04-03T05:27:07;24.10;76.50
41953;DHT22;63613;28.200;112.870;2023-04-03T05:29:34;24.20;76.50
41953;DHT22;63613;28.200;112.870;2023-04-03T05:32:01;24.20;76.60
41953;DHT22;63613;28.200;112.870;2023-04-03T05:34:28;24.20;76.60
41953;DHT22;63613;28.200;112.870;2023-04-03T05:36:55;24.30;76.60
41953;DHT22;63613;28.200;112.870;2023-04-03T05:39:21;24.30;76.60
41953;DHT22;63613;28.200;112.870;2023-04-03T05:41:51;24.30;76.70
41953;DHT22;63613;28.200;112.870;2023-04-03T05:44:18;24.30;76.60
41953;DHT22;63613;28.200;112.870;2023-04-03T05:46:45;24.40;76.60
41953;DHT22;63613;28.200;112.870;2023-04-03T05:49:12;24.40;76.60
41953;DHT22;63613;28.200;112.870;2023-04-03T05:51:39;24.40;76.40
41953;DHT22;63613;28.200;112.870;2023-04-03T05:56:42;24.50;76.30
41953;DHT22;63613;28.200;112.870;2023-04-03T05:59:10;24.50;76.20
41953;DHT22;63613;28.200;112.870;2023-04-03T06:01:38;24.50;76.30
41953;DHT22;63613;28.200;112.870;2023-04-03T06:04:25;24.50;76.30
41953;DHT22;63613;28.200;112.870;2023-04-03T06:06:57;24.50;76.10
41953;DHT22;63613;28.200;112.870;2023-04-03T06:09:28;24.50;75.80
41953;DHT22;63613;28.200;112.870;2023-04-03T06:11:56;24.60;75.60
41953;DHT22;63613;28.200;112.870;2023-04-03T06:14:25;24.60;75.50
41953;DHT22;63613;28.200;112.870;2023-04-03T06:16:53;24.70;75.50
41953;DHT22;63613;28.200;112.870;2023-04-03T06:19:26;24.80;75.60
41953;DHT22;63613;28.200;112.870;2023-04-03T06:21:53;24.80;75.50
41953;DHT22;63613;28.200;112.870;2023-04-03T06:24:20;24.70;75.50
41953;DHT22;63613;28.200;112.870;2023-04-03T06:26:49;24.80;75.30
41953;DHT22;63613;28.200;112.870;2023-04-03T06:29:18;24.70;75.30
41953;DHT22;63613;28.200;112.870;2023-04-03T06:31:46;24.70;75.20
41953;DHT22;63613;28.200;112.870;2023-04-03T06:34:13;24.60;75.10
41953;DHT22;63613;28.200;112.870;2023-04-03T06:36:41;24.70;75.00
41953;DHT22;63613;28.200;112.870;2023-04-03T06:39:15;24.60;74.80
41953;DHT22;63613;28.200;112.870;2023-04-03T06:41:42;24.60;74.70
41953;DHT22;63613;28.200;112.870;2023-04-03T06:44:10;24.60;74.50
41953;DHT22;63613;28.200;112.870;2023-04-03T06:46:56;24.60;74.50
41953;DHT22;63613;28.200;112.870;2023-04-03T06:49:23;24.50;74.50
41953;DHT22;63613;28.200;112.870;2023-04-03T06:51:51;24.50;74.30
41953;DHT22;63613;28.200;112.870;2023-04-03T06:54:18;24.50;74.10
41953;DHT22;63613;28.200;112.870;2023-04-03T06:56:45;24.40;74.10
41953;DHT22;63613;28.200;112.870;2023-04-03T06:59:12;24.50;74.10
41953;DHT22;63613;28.200;112.870;2023-04-03T07:01:43;24.40;74.00
41953;DHT22;63613;28.200;112.870;2023-04-03T07:04:10;24.40;73.90
41953;DHT22;63613;28.200;112.870;2023-04-03T07:06:37;24.30;74.00
41953;DHT22;63613;28.200;112.870;2023-04-03T07:09:03;24.30;73.90
41953;DHT22;63613;28.200;112.870;2023-04-03T07:11:31;24.30;74.00
41953;DHT22;63613;28.200;112.870;2023-04-03T07:13:58;24.30;73.90
41953;DHT22;63613;28.200;112.870;2023-04-03T07:16:28;24.30;74.00
41953;DHT22;63613;28.200;112.870;2023-04-03T07:19:16;24.30;73.90
41953;DHT22;63613;28.200;112.870;2023-04-03T07:21:44;24.30;73.90
41953;DHT22;63613;28.200;112.870;2023-04-03T07:24:12;24.20;74.00
41953;DHT22;63613;28.200;112.870;2023-04-03T07:26:38;24.20;74.40
41953;DHT22;63613;28.200;112.870;2023-04-03T07:29:05;24.20;74.50
41953;DHT22;63613;28.200;112.870;2023-04-03T07:31:32;24.20;74.40
41953;DHT22;63613;28.200;112.870;2023-04-03T07:34:01;24.30;74.30
41953;DHT22;63613;28.200;112.870;2023-04-03T07:36:28;24.30;74.10
41953;DHT22;63613;28.200;112.870;2023-04-03T07:38:55;24.30;74.10
41953;DHT22;63613;28.200;112.870;2023-04-03T07:41:22;24.30;74.20
41953;DHT22;63613;28.200;112.870;2023-04-03T07:43:49;24.30;74.40
41953;DHT22;63613;28.200;112.870;2023-04-03T07:46:17;24.30;74.50
41953;DHT22;63613;28.200;112.870;2023-04-03T07:48:44;24.30;74.50
41953;DHT22;63613;28.200;112.870;2023-04-03T07:51:11;24.30;74.80
41953;DHT22;63613;28.200;112.870;2023-04-03T07:53:38;24.30;74.90
41953;DHT22;63613;28.200;112.870;2023-04-03T07:56:24;24.30;75.00
41953;DHT22;63613;28.200;112.870;2023-04-03T07:58:53;24.20;75.10
41953;DHT22;63613;28.200;112.870;2023-04-03T08:01:27;24.20;74.90
41953;DHT22;63613;28.200;112.870;2023-04-03T08:03:54;24.30;74.70
41953;DHT22;63613;28.200;112.870;2023-04-03T08:06:21;24.30;74.30
41953;DHT22;63613;28.200;112.870;2023-04-03T08:08:48;24.40;74.30
41953;DHT22;63613;28.200;112.870;2023-04-03T08:11:15;24.40;74.30
41953;DHT22;63613;28.200;112.870;2023-04-03T08:13:42;24.30;74.30
41953;DHT22;63613;28.200;112.870;2023-04-03T08:16:16;24.30;74.20
41953;DHT22;63613;28.200;112.870;2023-04-03T08:18:44;24.30;74.20
41953;DHT22;63613;28.200;112.870;2023-04-03T08:21:12;24.30;74.20
41953;DHT22;63613;28.200;112.870;2023-04-03T08:23:40;24.30;74.20
41953;DHT22;63613;28.200;112.870;2023-04-03T08:26:12;24.30;74.20
41953;DHT22;63613;28.200;112.870;2023-04-03T08:28:59;24.20;74.20
41953;DHT22;63613;28.200;112.870;2023-04-03T08:31:26;24.30;74.20
41953;DHT22;63613;28.200;112.870;2023-04-03T08:33:54;24.30;74.30
41953;DHT22;63613;28.200;112.870;2023-04-03T08:36:28;24.30;74.20
41953;DHT22;63613;28.200;112.870;2023-04-03T08:38:57;24.30;74.40
41953;DHT22;63613;28.200;112.870;2023-04-03T08:41:29;24.30;74.30
41953;DHT22;63613;28.200;112.870;2023-04-03T08:47:13;24.20;74.90
41953;DHT22;63613;28.200;112.870;2023-04-03T08:49:59;24.30;74.90
41953;DHT22;63613;28.200;112.870;2023-04-03T08:52:31;24.30;75.00
41953;DHT22;63613;28.200;112.870;2023-04-03T08:55:26;24.20;75.00
41953;DHT22;63613;28.200;112.870;2023-04-03T08:58:06;24.20;74.90
41953;DHT22;63613;28.200;112.870;2023-04-03T09:01:06;24.20;74.80
41953;DHT22;63613;28.200;112.870;2023-04-03T09:03:44;24.20;74.80
41953;DHT22;63613;28.200;112.870;2023-04-03T09:08:51;24.20;75.10
41953;DHT22;63613;28.200;112.870;2023-04-03T09:11:42;24.20;75.30
41953;DHT22;63613;28.200;112.870;2023-04-03T09:14:30;24.20;75.50
41953;DHT22;63613;28.200;112.870;2023-04-03T09:17:06;24.20;75.60
41953;DHT22;63613;28.200;112.870;2023-04-03T09:22:23;24.20;75.70
41953;DHT22;63613;28.200;112.870;2023-04-03T09:27:24;24.20;75.70
41953;DHT22;63613;28.200;112.870;2023-04-03T09:29:53;24.20;75.70
41953;DHT22;63613;28.200;112.870;2023-04-03T09:32:28;24.20;75.60
41953;DHT22;63613;28.200;112.870;2023-04-03T09:34:58;24.20;75.60
41953;DHT22;63613;28.200;112.870;2023-04-03T09:37:43;24.20;75.60
41953;DHT22;63613;28.200;112.870;2023-04-03T09:40:34;24.20;75.60
41953;DHT22;63613;28.200;112.870;2023-04-03T09:45:47;24.20;75.60
41953;DHT22;63613;28.200;112.870;2023-04-03T09:53:42;24.20;75.70
41953;DHT22;63613;28.200;112.870;2023-04-03T10:01:33;24.20;75.70
41953;DHT22;63613;28.200;112.870;2023-04-03T10:04:16;24.20;75.80
41953;DHT22;63613;28.200;112.870;2023-04-03T10:06:46;24.20;75.80
41953;DHT22;63613;28.200;112.870;2023-04-03T10:12:11;24.10;75.90
41953;DHT22;63613;28.200;112.870;2023-04-03T10:14:57;24.20;76.00
41953;DHT22;63613;28.200;112.870;2023-04-03T10:17:57;24.20;76.00
41953;DHT22;63613;28.200;112.870;2023-04-03T10:25:44;24.10;75.90
41953;DHT22;63613;28.200;112.870;2023-04-03T10:39:06;24.00;75.70
41953;DHT22;63613;28.200;112.870;2023-04-03T10:42:13;24.00;75.70
41953;DHT22;63613;28.200;112.870;2023-04-03T10:53:21;24.00;76.10
41953;DHT22;63613;28.200;112.870;2023-04-03T10:56:06;24.00;76.10
41953;DHT22;63613;28.200;112.870;2023-04-03T11:02:00;23.90;76.20
41953;DHT22;63613;28.200;112.870;2023-04-03T11:04:35;23.90;76.20
41953;DHT22;63613;28.200;112.870;2023-04-03T11:07:09;23.90;76.20
41953;DHT22;63613;28.200;112.870;2023-04-03T11:09:41;23.90;76.20
41953;DHT22;63613;28.200;112.870;2023-04-03T11:12:28;23.90;76.20
41953;DHT22;63613;28.200;112.870;2023-04-03T11:15:02;23.90;76.20
41953;DHT22;63613;28.200;112.870;2023-04-03T11:17:54;23.80;76.20
41953;DHT22;63613;28.200;112.870;2023-04-03T11:20:29;23.80;76.20
41953;DHT22;63613;28.200;112.870;2023-04-03T11:23:06;23.80;76.30
41953;DHT22;63613;28.200;112.870;2023-04-03T11:25:33;23.80;76.30
41953;DHT22;63613;28.200;112.870;2023-04-03T11:28:05;23.80;76.40
41953;DHT22;63613;28.200;112.870;2023-04-03T11:31:12;23.80;76.50
41953;DHT22;63613;28.200;112.870;2023-04-03T11:33:51;23.80;76.40
41953;DHT22;63613;28.200;112.870;2023-04-03T11:36:31;23.80;76.50
41953;DHT22;63613;28.200;112.870;2023-04-03T11:39:07;23.80;76.40
41953;DHT22;63613;28.200;112.870;2023-04-03T11:41:36;23.80;76.40
41953;DHT22;63613;28.200;112.870;2023-04-03T11:44:35;23.80;76.40
41953;DHT22;63613;28.200;112.870;2023-04-03T11:47:05;23.80;76.30
41953;DHT22;63613;28.200;112.870;2023-04-03T12:24:31;23.70;76.60
41953;DHT22;63613;28.200;112.870;2023-04-03T12:27:02;23.80;76.70
41953;DHT22;63613;28.200;112.870;2023-04-03T12:45:02;23.80;77.10
41953;DHT22;63613;28.200;112.870;2023-04-03T12:47:36;23.70;77.00
41953;DHT22;63613;28.200;112.870;2023-04-03T12:50:32;23.70;77.00
41953;DHT22;63613;28.200;112.870;2023-04-03T12:53:27;23.80;77.00
41953;DHT22;63613;28.200;112.870;2023-04-03T12:56:18;23.70;76.80
41953;DHT22;63613;28.200;112.870;2023-04-03T12:59:16;23.70;76.90
41953;DHT22;63613;28.200;112.870;2023-04-03T13:01:44;23.70;76.80
41953;DHT22;63613;28.200;112.870;2023-04-03T13:04:20;23.70;76.80
41953;DHT22;63613;28.200;112.870;2023-04-03T13:06:52;23.70;76.80
41953;DHT22;63613;28.200;112.870;2023-04-03T13:09:27;23.70;76.80
41953;DHT22;63613;28.200;112.870;2023-04-03T13:12:17;23.70;76.70
41953;DHT22;63613;28.200;112.870;2023-04-03T13:14:56;23.70;76.70
41953;DHT22;63613;28.200;112.870;2023-04-03T13:17:26;23.70;76.60
41953;DHT22;63613;28.200;112.870;2023-04-03T13:19:54;23.70;76.60
41953;DHT22;63613;28.200;112.870;2023-04-03T13:24:55;23.70;76.50
41953;DHT22;63613;28.200;112.870;2023-04-03T13:27:24;23.70;76.50
41953;DHT22;63613;28.200;112.870;2023-04-03T13:29:54;23.70;76.50
41953;DHT22;63613;28.200;112.870;2023-04-03T13:32:29;23.70;76.60
41953;DHT22;63613;28.200;112.870;2023-04-03T13:34:57;23.70;76.60
41953;DHT22;63613;28.200;112.870;2023-04-03T13:37:26;23.70;76.50
41953;DHT22;63613;28.200;112.870;2023-04-03T13:42:29;23.70;76.50
41953;DHT22;63613;28.200;112.870;2023-04-03T13:45:28;23.70;76.40
41953;DHT22;63613;28.200;112.870;2023-04-03T13:48:15;23.70;76.50
41953;DHT22;63613;28.200;112.870;2023-04-03T13:53:25;23.70;76.50
41953;DHT22;63613;28.200;112.870;2023-04-03T13:56:18;23.70;76.40
41953;DHT22;63613;28.200;112.870;2023-04-03T14:01:48;23.70;76.40
41953;DHT22;63613;28.200;112.870;2023-04-03T14:04:30;23.70;76.30
41953;DHT22;63613;28.200;112.870;2023-04-03T14:07:17;23.60;76.30
41953;DHT22;63613;28.200;112.870;2023-04-03T14:09:46;23.70;76.20
41953;DHT22;63613;28.200;112.870;2023-04-03T14:12:18;23.70;76.10
41953;DHT22;63613;28.200;112.870;2023-04-03T14:14:49;23.70;76.10
41953;DHT22;63613;28.200;112.870;2023-04-03T14:17:19;23.70;76.10
41953;DHT22;63613;28.200;112.870;2023-04-03T14:19:48;23.70;76.10
41953;DHT22;63613;28.200;112.870;2023-04-03T14:22:25;23.70;76.00
41953;DHT22;63613;28.200;112.870;2023-04-03T14:24:55;23.70;76.00
41953;DHT22;63613;28.200;112.870;2023-04-03T14:27:35;23.70;75.90
41953;DHT22;63613;28.200;112.870;2023-04-03T14:30:05;23.70;75.90
41953;DHT22;63613;28.200;112.870;2023-04-03T14:32:33;23.70;75.90
41953;DHT22;63613;28.200;112.870;2023-04-03T14:34:59;23.70;76.00
41953;DHT22;63613;28.200;112.870;2023-04-03T14:37:29;23.60;75.90
41953;DHT22;63613;28.200;112.870;2023-04-03T14:39:59;23.70;75.90
41953;DHT22;63613;28.200;112.870;2023-04-03T14:42:31;23.70;75.90
41953;DHT22;63613;28.200;112.870;2023-04-03T14:45:01;23.60;75.90
41953;DHT22;63613;28.200;112.870;2023-04-03T14:47:30;23.60;76.00
41953;DHT22;63613;28.200;112.870;2023-04-03T14:50:03;23.70;76.00
41953;DHT22;63613;28.200;112.870;2023-04-03T14:52:34;23.70;76.20
41953;DHT22;63613;28.200;112.870;2023-04-03T14:55:05;23.70;76.00
41953;DHT22;63613;28.200;112.870;2023-04-03T14:57:32;23.60;76.20
41953;DHT22;63613;28.200;112.870;2023-04-03T15:00:04;23.70;76.10
41953;DHT22;63613;28.200;112.870;2023-04-03T15:02:35;23.70;76.20
41953;DHT22;63613;28.200;112.870;2023-04-03T15:05:04;23.70;76.10
41953;DHT22;63613;28.200;112.870;2023-04-03T15:07:43;23.60;76.20
41953;DHT22;63613;28.200;112.870;2023-04-03T15:10:21;23.60;76.30
41953;DHT22;63613;28.200;112.870;2023-04-03T15:13:10;23.70;76.40
41953;DHT22;63613;28.200;112.870;2023-04-03T15:15:43;23.70;76.40
41953;DHT22;63613;28.200;112.870;2023-04-03T15:18:24;23.60;76.40
41953;DHT22;63613;28.200;112.870;2023-04-03T15:20:55;23.60;75.60
41953;DHT22;63613;28.200;112.870;2023-04-03T15:23:22;23.60;73.80
41953;DHT22;63613;28.200;112.870;2023-04-03T15:25:52;23.60;73.10
41953;DHT22;63613;28.200;112.870;2023-04-03T15:31:00;23.60;72.10
41953;DHT22;63613;28.200;112.870;2023-04-03T15:33:27;23.50;71.80
41953;DHT22;63613;28.200;112.870;2023-04-03T15:35:58;23.60;71.30
41953;DHT22;63613;28.200;112.870;2023-04-03T15:38:25;23.60;71.10
41953;DHT22;63613;28.200;112.870;2023-04-03T15:40:53;23.60;70.90
41953;DHT22;63613;28.200;112.870;2023-04-03T15:43:20;23.60;70.80
41953;DHT22;63613;28.200;112.870;2023-04-03T15:45:48;23.60;70.80
41953;DHT22;63613;28.200;112.870;2023-04-03T15:48:18;23.60;70.90
41953;DHT22;63613;28.200;112.870;2023-04-03T15:51:06;23.60;71.00
41953;DHT22;63613;28.200;112.870;2023-04-03T15:53:32;23.60;71.20
41953;DHT22;63613;28.200;112.870;2023-04-03T15:56:21;23.60;70.90
41953;DHT22;63613;28.200;112.870;2023-04-03T15:58:48;23.50;70.80
41953;DHT22;63613;28.200;112.870;2023-04-03T16:01:15;23.50;70.60
41953;DHT22;63613;28.200;112.870;2023-04-03T16:03:44;23.50;70.60
41953;DHT22;63613;28.200;112.870;2023-04-03T16:06:16;23.50;70.50
41953;DHT22;63613;28.200;112.870;2023-04-03T16:08:47;23.50;70.50
41953;DHT22;63613;28.200;112.870;2023-04-03T16:11:17;23.60;70.60
41953;DHT22;63613;28.200;112.870;2023-04-03T16:13:44;23.50;70.60
41953;DHT22;63613;28.200;112.870;2023-04-03T16:16:11;23.50;70.80
41953;DHT22;63613;28.200;112.870;2023-04-03T16:18:39;23.50;70.90
41953;DHT22;63613;28.200;112.870;2023-04-03T16:21:15;23.50;71.00
41953;DHT22;63613;28.200;112.870;2023-04-03T16:23:44;23.50;71.10
41953;DHT22;63613;28.200;112.870;2023-04-03T16:26:12;23.50;71.30
41953;DHT22;63613;28.200;112.870;2023-04-03T16:28:40;23.50;71.50
41953;DHT22;63613;28.200;112.870;2023-04-03T16:31:07;23.50;71.30
41953;DHT22;63613;28.200;112.870;2023-04-03T16:33:37;23.40;71.30
41953;DHT22;63613;28.200;112.870;2023-04-03T16:36:05;23.50;71.20
41953;DHT22;63613;28.200;112.870;2023-04-03T16:38:31;23.50;71.20
41953;DHT22;63613;28.200;112.870;2023-04-03T16:40:58;23.50;71.20
41953;DHT22;63613;28.200;112.870;2023-04-03T16:43:27;23.50;71.30
41953;DHT22;63613;28.200;112.870;2023-04-03T16:45:54;23.40;71.10
41953;DHT22;63613;28.200;112.870;2023-04-03T16:48:21;23.40;70.20
41953;DHT22;63613;28.200;112.870;2023-04-03T16:50:49;23.30;70.30
41953;DHT22;63613;28.200;112.870;2023-04-03T16:53:22;23.30;70.20
41953;DHT22;63613;28.200;112.870;2023-04-03T16:55:50;23.30;70.20
41953;DHT22;63613;28.200;112.870;2023-04-03T16:58:17;23.30;70.10
41953;DHT22;63613;28.200;112.870;2023-04-03T17:00:43;23.40;70.00
41953;DHT22;63613;28.200;112.870;2023-04-03T17:03:12;23.30;70.10
41953;DHT22;63613;28.200;112.870;2023-04-03T17:05:39;23.40;70.20
41953;DHT22;63613;28.200;112.870;2023-04-03T17:08:07;23.40;70.40
41953;DHT22;63613;28.200;112.870;2023-04-03T17:10:34;23.30;69.90
41953;DHT22;63613;28.200;112.870;2023-04-03T17:13:01;23.30;69.90
41953;DHT22;63613;28.200;112.870;2023-04-03T17:15:28;23.30;69.80
41953;DHT22;63613;28.200;112.870;2023-04-03T17:18:15;23.30;69.90
41953;DHT22;63613;28.200;112.870;2023-04-03T17:20:42;23.30;70.00
41953;DHT22;63613;28.200;112.870;2023-04-03T17:23:08;23.30;70.10
41953;DHT22;63613;28.200;112.870;2023-04-03T17:25:37;23.30;69.50
41953;DHT22;63613;28.200;112.870;2023-04-03T17:28:04;23.30;69.60
41953;DHT22;63613;28.200;112.870;2023-04-03T17:30:32;23.30;69.70
41953;DHT22;63613;28.200;112.870;2023-04-03T17:33:01;23.30;69.70